createdAt,value
2017-08-07T00:00:16.003Z,12.2
2017-08-07T00:01:18.758Z,12.2
2017-08-07T00:02:21.516Z,12.2
2017-08-07T00:03:24.954Z,12.3
2017-08-07T00:04:27.705Z,12.3
2017-08-07T00:05:30.481Z,12.3
2017-08-07T00:06:33.233Z,12.3
2017-08-07T00:07:35.989Z,12.3
2017-08-07T00:08:38.754Z,12.3
2017-08-07T00:09:41.529Z,12.4
2017-08-07T00:10:44.275Z,12.4
2017-08-07T00:11:47.034Z,12.3
2017-08-07T00:12:49.449Z,12.4
2017-08-07T00:13:52.203Z,12.4
2017-08-07T00:14:54.613Z,12.4
2017-08-07T00:15:57.370Z,12.4
2017-08-07T00:16:59.770Z,12.4
2017-08-07T00:18:02.859Z,12.4
2017-08-07T00:19:05.290Z,12.4
2017-08-07T00:20:07.702Z,12.5
2017-08-07T00:21:10.462Z,12.5
2017-08-07T00:22:12.872Z,12.5
2017-08-07T00:23:15.292Z,12.5
2017-08-07T00:24:18.049Z,12.5
2017-08-07T00:25:20.804Z,12.5
2017-08-07T00:26:23.208Z,12.5
2017-08-07T00:27:25.637Z,12.5
2017-08-07T00:28:28.056Z,12.6
2017-08-07T00:29:30.803Z,12.5
2017-08-07T00:30:33.225Z,12.5
2017-08-07T00:31:35.665Z,12.5
2017-08-07T00:32:38.418Z,12.5
2017-08-07T00:33:41.172Z,12.5
2017-08-07T00:34:43.592Z,12.5
2017-08-07T00:35:46.346Z,12.5
2017-08-07T00:36:48.780Z,12.5
2017-08-07T00:37:51.199Z,12.5
2017-08-07T00:38:54.299Z,12.5
2017-08-07T00:39:57.046Z,12.5
2017-08-07T00:40:59.457Z,12.5
2017-08-07T00:42:02.224Z,12.5
2017-08-07T00:43:04.654Z,12.5
2017-08-07T00:44:07.065Z,12.5
2017-08-07T00:45:09.488Z,12.5
2017-08-07T00:46:11.909Z,12.5
2017-08-07T00:47:14.325Z,12.5
2017-08-07T00:48:17.083Z,12.5
2017-08-07T00:49:19.851Z,12.5
2017-08-07T00:50:22.255Z,12.5
2017-08-07T00:51:24.676Z,12.5
2017-08-07T00:52:27.103Z,12.5
2017-08-07T00:53:29.518Z,12.5
2017-08-07T00:54:32.284Z,12.5
2017-08-07T00:55:35.037Z,12.5
2017-08-07T00:56:37.787Z,12.5
2017-08-07T00:57:40.564Z,12.5
2017-08-07T00:58:43.324Z,12.5
2017-08-07T00:59:46.100Z,12.5
2017-08-07T01:00:48.509Z,12.4
2017-08-07T01:01:50.930Z,12.4
2017-08-07T01:02:53.695Z,12.4
2017-08-07T01:03:56.101Z,12.5
2017-08-07T01:04:58.519Z,12.5
2017-08-07T01:06:00.936Z,12.5
2017-08-07T01:07:04.030Z,12.5
2017-08-07T01:08:06.770Z,12.5
2017-08-07T01:09:09.193Z,12.5
2017-08-07T01:10:11.619Z,12.5
2017-08-07T01:11:14.376Z,12.5
2017-08-07T01:12:16.792Z,12.5
2017-08-07T01:13:19.218Z,12.5
2017-08-07T01:14:21.632Z,12.5
2017-08-07T01:15:24.050Z,12.5
2017-08-07T01:16:26.462Z,12.5
2017-08-07T01:17:29.238Z,12.5
2017-08-07T01:18:32.006Z,12.5
2017-08-07T01:19:34.417Z,12.5
2017-08-07T01:20:37.169Z,12.5
2017-08-07T01:21:39.582Z,12.5
2017-08-07T01:22:42.333Z,12.5
2017-08-07T01:23:44.766Z,12.4
2017-08-07T01:24:47.182Z,12.4
2017-08-07T01:25:49.592Z,12.4
2017-08-07T01:26:52.004Z,12.5
2017-08-07T01:27:54.416Z,12.4
2017-08-07T01:28:56.836Z,12.4
2017-08-07T01:29:59.269Z,12.4
2017-08-07T01:31:01.685Z,12.4
2017-08-07T01:32:04.461Z,12.3
2017-08-07T01:33:06.885Z,12.3
2017-08-07T01:34:09.296Z,12.3
2017-08-07T01:35:11.707Z,12.3
2017-08-07T01:36:14.123Z,12.4
2017-08-07T01:37:16.541Z,12.3
2017-08-07T01:38:19.301Z,12.3
2017-08-07T01:39:22.060Z,12.3
2017-08-07T01:40:24.840Z,12.2
2017-08-07T01:41:27.248Z,12.2
2017-08-07T01:42:29.709Z,12.2
2017-08-07T01:43:32.129Z,12.2
2017-08-07T01:44:34.535Z,12.2
2017-08-07T01:45:37.281Z,12.2
2017-08-07T01:46:40.047Z,12.2
2017-08-07T01:47:42.479Z,12.2
2017-08-07T01:48:44.903Z,12.1
2017-08-07T01:49:47.655Z,12.1
2017-08-07T01:50:50.073Z,12.1
2017-08-07T01:51:52.497Z,12.1
2017-08-07T01:52:54.909Z,12.1
2017-08-07T01:53:58.002Z,12.1
2017-08-07T01:55:00.422Z,12.1
2017-08-07T01:56:02.829Z,12
2017-08-07T01:57:05.255Z,12
2017-08-07T01:58:07.675Z,12
2017-08-07T01:59:10.442Z,12
2017-08-07T02:00:13.208Z,12
2017-08-07T02:01:15.650Z,11.9
2017-08-07T02:02:18.064Z,11.9
2017-08-07T02:03:20.475Z,11.9
2017-08-07T02:04:23.570Z,11.9
2017-08-07T02:05:25.983Z,11.9
2017-08-07T02:06:28.742Z,11.9
2017-08-07T02:07:31.169Z,11.8
2017-08-07T02:08:34.617Z,11.8
2017-08-07T02:09:37.027Z,11.8
2017-08-07T02:10:39.450Z,11.8
2017-08-07T02:11:41.874Z,11.7
2017-08-07T02:12:44.280Z,11.7
2017-08-07T02:13:47.042Z,11.7
2017-08-07T02:14:49.785Z,11.6
2017-08-07T02:15:52.206Z,11.6
2017-08-07T02:16:54.618Z,11.5
2017-08-07T02:17:57.060Z,11.5
2017-08-07T02:18:59.473Z,11.4
2017-08-07T02:20:01.898Z,11.4
2017-08-07T02:21:04.656Z,11.3
2017-08-07T02:22:07.409Z,11.3
2017-08-07T02:23:10.169Z,11.3
2017-08-07T02:24:12.598Z,11.3
2017-08-07T02:25:15.679Z,11.2
2017-08-07T02:26:18.782Z,11.2
2017-08-07T02:27:21.189Z,11.2
2017-08-07T02:28:23.604Z,11.1
2017-08-07T02:29:26.356Z,11.1
2017-08-07T02:30:28.780Z,11.1
2017-08-07T02:31:31.530Z,11.1
2017-08-07T02:32:33.948Z,11.1
2017-08-07T02:33:36.384Z,11.1
2017-08-07T02:34:38.800Z,11.1
2017-08-07T02:35:41.548Z,11.1
2017-08-07T02:36:44.652Z,11.1
2017-08-07T02:37:47.400Z,11.1
2017-08-07T02:38:50.167Z,11.1
2017-08-07T02:39:52.916Z,11.1
2017-08-07T02:40:55.339Z,11.1
2017-08-07T02:41:58.436Z,11.1
2017-08-07T02:43:00.859Z,11.1
2017-08-07T02:44:03.617Z,11.1
2017-08-07T02:45:07.045Z,11.1
2017-08-07T02:46:09.459Z,11.1
2017-08-07T02:47:11.874Z,11.2
2017-08-07T02:48:14.630Z,11.2
2017-08-07T02:49:17.753Z,11.2
2017-08-07T02:50:20.504Z,11.1
2017-08-07T02:51:22.915Z,11.1
2017-08-07T02:52:25.686Z,11.1
2017-08-07T02:53:28.780Z,11.1
2017-08-07T02:54:31.533Z,11.1
2017-08-07T02:55:33.972Z,11.1
2017-08-07T02:56:36.382Z,11.1
2017-08-07T02:57:38.793Z,11.1
2017-08-07T02:58:41.217Z,11.1
2017-08-07T02:59:43.627Z,11.1
2017-08-07T03:00:46.043Z,11.1
2017-08-07T03:01:48.804Z,11.2
2017-08-07T03:02:51.585Z,11.2
2017-08-07T03:03:54.002Z,11.1
2017-08-07T03:04:56.754Z,11.1
2017-08-07T03:05:59.174Z,11.1
2017-08-07T03:07:02.285Z,11.1
2017-08-07T03:08:04.689Z,11.1
2017-08-07T03:09:07.795Z,11
2017-08-07T03:10:10.233Z,11.1
2017-08-07T03:11:13.331Z,11.1
2017-08-07T03:12:16.091Z,11.1
2017-08-07T03:13:18.498Z,11.1
2017-08-07T03:14:21.594Z,11.2
2017-08-07T03:15:24.020Z,11.2
2017-08-07T03:16:26.780Z,11.1
2017-08-07T03:17:29.197Z,11.1
2017-08-07T03:18:31.950Z,11.1
2017-08-07T03:19:34.360Z,11.2
2017-08-07T03:20:37.116Z,11.2
2017-08-07T03:21:40.248Z,11.2
2017-08-07T03:22:42.654Z,11.2
2017-08-07T03:23:45.078Z,11.3
2017-08-07T03:24:47.513Z,11.3
2017-08-07T03:25:49.918Z,11.3
2017-08-07T03:26:52.675Z,11.4
2017-08-07T03:27:55.421Z,11.4
2017-08-07T03:28:58.193Z,11.4
2017-08-07T03:30:00.960Z,11.5
2017-08-07T03:31:03.394Z,11.5
2017-08-07T03:32:05.808Z,11.6
2017-08-07T03:33:08.218Z,11.6
2017-08-07T03:34:10.631Z,11.6
2017-08-07T03:35:13.378Z,11.6
2017-08-07T03:36:16.132Z,11.6
2017-08-07T03:37:18.905Z,11.6
2017-08-07T03:38:21.661Z,11.7
2017-08-07T03:39:24.060Z,11.6
2017-08-07T03:40:26.495Z,11.6
2017-08-07T03:41:28.942Z,11.6
2017-08-07T03:42:32.051Z,11.6
2017-08-07T03:43:34.477Z,11.6
2017-08-07T03:44:36.884Z,11.6
2017-08-07T03:45:39.641Z,11.6
2017-08-07T03:46:42.069Z,11.7
2017-08-07T03:47:44.489Z,11.8
2017-08-07T03:48:46.898Z,11.8
2017-08-07T03:49:49.312Z,11.8
2017-08-07T03:50:52.067Z,11.8
2017-08-07T03:51:54.815Z,11.8
2017-08-07T03:52:57.240Z,11.8
2017-08-07T03:53:59.984Z,11.9
2017-08-07T03:55:02.740Z,11.9
2017-08-07T03:56:05.142Z,11.9
2017-08-07T03:57:07.560Z,11.9
2017-08-07T03:58:10.683Z,11.9
2017-08-07T03:59:13.437Z,11.9
2017-08-07T04:00:16.193Z,12
2017-08-07T04:01:18.617Z,12
2017-08-07T04:02:21.022Z,12
2017-08-07T04:03:23.428Z,12.1
2017-08-07T04:04:25.852Z,12.1
2017-08-07T04:05:28.964Z,12.1
2017-08-07T04:06:31.369Z,12.1
2017-08-07T04:07:34.184Z,12.3
2017-08-07T04:08:36.697Z,12.3
2017-08-07T04:09:39.581Z,12.4
2017-08-07T04:10:42.458Z,12.4
2017-08-07T04:11:45.326Z,12.5
2017-08-07T04:12:47.857Z,12.5
2017-08-07T04:13:51.041Z,12.6
2017-08-07T04:14:53.554Z,12.6
2017-08-07T04:15:56.486Z,12.6
2017-08-07T04:16:58.989Z,12.6
2017-08-07T04:18:01.855Z,12.6
2017-08-07T04:19:05.079Z,12.6
2017-08-07T04:20:07.573Z,12.6
2017-08-07T04:21:10.093Z,12.6
2017-08-07T04:22:12.973Z,12.7
2017-08-07T04:23:16.167Z,12.6
2017-08-07T04:24:18.693Z,12.6
2017-08-07T04:25:21.891Z,12.6
2017-08-07T04:26:25.104Z,12.6
2017-08-07T04:27:27.646Z,12.6
2017-08-07T04:28:30.153Z,12.6
2017-08-07T04:29:33.040Z,12.5
2017-08-07T04:30:35.605Z,12.6
2017-08-07T04:31:38.124Z,12.6
2017-08-07T04:32:41.340Z,12.6
2017-08-07T04:33:43.868Z,12.6
2017-08-07T04:34:46.392Z,12.6
2017-08-07T04:35:48.899Z,12.6
2017-08-07T04:36:51.766Z,12.6
2017-08-07T04:37:54.275Z,12.6
2017-08-07T04:38:56.795Z,12.6
2017-08-07T04:39:59.308Z,12.7
2017-08-07T04:41:01.818Z,12.7
2017-08-07T04:42:05.031Z,12.7
2017-08-07T04:43:08.253Z,12.7
2017-08-07T04:44:12.120Z,12.8
2017-08-07T04:45:14.969Z,12.7
2017-08-07T04:46:17.484Z,12.8
2017-08-07T04:47:20.685Z,12.8
2017-08-07T04:48:23.535Z,12.8
2017-08-07T04:49:26.039Z,12.8
2017-08-07T04:50:28.548Z,12.9
2017-08-07T04:51:31.395Z,12.9
2017-08-07T04:52:33.919Z,12.9
2017-08-07T04:53:36.773Z,12.9
2017-08-07T04:54:39.293Z,13
2017-08-07T04:55:42.146Z,13
2017-08-07T04:56:44.664Z,13
2017-08-07T04:57:47.189Z,13.1
2017-08-07T04:58:50.041Z,13.1
2017-08-07T04:59:52.581Z,13.1
2017-08-07T05:00:55.771Z,13.1
2017-08-07T05:01:58.298Z,13.1
2017-08-07T05:03:01.153Z,13.2
2017-08-07T05:04:03.675Z,13.2
2017-08-07T05:05:06.558Z,13.2
2017-08-07T05:06:09.079Z,13.3
2017-08-07T05:07:12.268Z,13.3
2017-08-07T05:08:14.777Z,13.4
2017-08-07T05:09:17.255Z,13.4
2017-08-07T05:10:19.789Z,13.4
2017-08-07T05:11:22.305Z,13.4
2017-08-07T05:12:24.796Z,13.5
2017-08-07T05:13:27.317Z,13.5
2017-08-07T05:14:29.845Z,13.5
2017-08-07T05:15:32.361Z,13.6
2017-08-07T05:16:35.216Z,13.6
2017-08-07T05:17:38.081Z,13.6
2017-08-07T05:18:40.918Z,13.7
2017-08-07T05:19:43.453Z,13.7
2017-08-07T05:20:46.287Z,13.7
2017-08-07T05:21:48.803Z,13.8
2017-08-07T05:22:51.656Z,13.8
2017-08-07T05:23:54.163Z,13.8
2017-08-07T05:24:57.349Z,13.8
2017-08-07T05:26:00.200Z,13.9
2017-08-07T05:27:02.695Z,13.9
2017-08-07T05:28:05.889Z,14
2017-08-07T05:29:08.401Z,14
2017-08-07T05:30:11.239Z,14.1
2017-08-07T05:31:13.742Z,14.1
2017-08-07T05:32:16.260Z,14.1
2017-08-07T05:33:19.100Z,14.2
2017-08-07T05:34:21.617Z,14.2
2017-08-07T05:35:24.117Z,14.2
2017-08-07T05:36:26.636Z,14.3
2017-08-07T05:37:29.484Z,14.3
2017-08-07T05:38:31.989Z,14.3
2017-08-07T05:39:34.505Z,14.4
2017-08-07T05:40:37.012Z,14.4
2017-08-07T05:41:39.507Z,14.4
2017-08-07T05:42:42.356Z,14.4
2017-08-07T05:43:44.851Z,14.5
2017-08-07T05:44:47.368Z,14.5
2017-08-07T05:45:49.892Z,14.5
2017-08-07T05:46:52.751Z,14.6
2017-08-07T05:47:55.633Z,14.6
2017-08-07T05:48:58.480Z,14.7
2017-08-07T05:50:01.330Z,14.8
2017-08-07T05:51:04.526Z,14.9
2017-08-07T05:52:07.038Z,14.9
2017-08-07T05:53:09.543Z,14.9
2017-08-07T05:54:12.055Z,15
2017-08-07T05:55:14.541Z,15
2017-08-07T05:56:17.078Z,15.1
2017-08-07T05:57:20.258Z,15.1
2017-08-07T05:58:22.777Z,15.1
2017-08-07T05:59:25.629Z,15.1
2017-08-07T06:00:29.203Z,15.1
2017-08-07T06:01:31.712Z,15.2
2017-08-07T06:02:34.204Z,15.2
2017-08-07T06:03:36.741Z,15.2
2017-08-07T06:04:39.257Z,15.3
2017-08-07T06:05:42.106Z,15.3
2017-08-07T06:06:44.610Z,15.4
2017-08-07T06:07:47.149Z,15.4
2017-08-07T06:08:49.980Z,15.5
2017-08-07T06:09:52.506Z,15.5
2017-08-07T06:10:55.039Z,15.5
2017-08-07T06:11:57.885Z,15.6
2017-08-07T06:13:00.412Z,15.6
2017-08-07T06:14:03.293Z,15.7
2017-08-07T06:15:06.810Z,15.7
2017-08-07T06:16:09.345Z,15.7
2017-08-07T06:17:11.867Z,15.8
2017-08-07T06:18:14.736Z,15.8
2017-08-07T06:19:17.946Z,15.8
2017-08-07T06:20:21.133Z,15.9
2017-08-07T06:21:23.984Z,15.9
2017-08-07T06:22:26.841Z,15.9
2017-08-07T06:23:29.378Z,16
2017-08-07T06:24:32.240Z,16
2017-08-07T06:25:34.763Z,16
2017-08-07T06:26:37.613Z,16
2017-08-07T06:27:40.128Z,16.1
2017-08-07T06:28:42.996Z,16.1
2017-08-07T06:29:46.526Z,16.1
2017-08-07T06:30:49.036Z,16.1
2017-08-07T06:31:51.870Z,16.2
2017-08-07T06:32:54.723Z,16.2
2017-08-07T06:33:57.264Z,16.3
2017-08-07T06:34:59.776Z,16.3
2017-08-07T06:36:02.276Z,16.3
2017-08-07T06:37:04.793Z,16.4
2017-08-07T06:38:07.300Z,16.4
2017-08-07T06:39:09.813Z,16.5
2017-08-07T06:40:12.361Z,16.5
2017-08-07T06:41:14.857Z,16.5
2017-08-07T06:42:17.714Z,16.5
2017-08-07T06:43:20.596Z,16.6
2017-08-07T06:44:23.091Z,16.6
2017-08-07T06:45:25.599Z,16.7
2017-08-07T06:46:28.103Z,16.7
2017-08-07T06:47:30.955Z,16.7
2017-08-07T06:48:33.453Z,16.7
2017-08-07T06:49:35.958Z,16.8
2017-08-07T06:50:38.457Z,16.8
2017-08-07T06:51:41.984Z,16.9
2017-08-07T06:52:44.521Z,16.9
2017-08-07T06:53:47.377Z,17
2017-08-07T06:54:49.896Z,17
2017-08-07T06:55:53.112Z,17
2017-08-07T06:56:55.632Z,17.1
2017-08-07T06:57:58.148Z,17.1
2017-08-07T06:59:01.706Z,17.1
2017-08-07T07:00:04.561Z,17.2
2017-08-07T07:01:07.072Z,17.2
2017-08-07T07:02:09.593Z,17.2
2017-08-07T07:03:12.110Z,17.3
2017-08-07T07:04:14.613Z,17.3
2017-08-07T07:05:17.128Z,17.4
2017-08-07T07:06:19.656Z,17.4
2017-08-07T07:07:22.522Z,17.5
2017-08-07T07:08:25.041Z,17.5
2017-08-07T07:09:27.888Z,17.5
2017-08-07T07:10:30.410Z,17.6
2017-08-07T07:11:32.909Z,17.6
2017-08-07T07:12:35.771Z,17.7
2017-08-07T07:13:38.318Z,17.7
2017-08-07T07:14:41.176Z,17.7
2017-08-07T07:15:43.678Z,17.8
2017-08-07T07:16:46.905Z,17.8
2017-08-07T07:17:49.412Z,17.8
2017-08-07T07:18:52.248Z,17.9
2017-08-07T07:19:54.776Z,17.9
2017-08-07T07:20:57.644Z,17.9
2017-08-07T07:22:00.179Z,18
2017-08-07T07:23:03.042Z,18
2017-08-07T07:24:05.899Z,18.1
2017-08-07T07:25:08.754Z,18.2
2017-08-07T07:26:11.278Z,18.2
2017-08-07T07:27:14.127Z,18.2
2017-08-07T07:28:16.674Z,18.3
2017-08-07T07:29:19.520Z,18.3
2017-08-07T07:30:22.375Z,18.3
2017-08-07T07:31:25.208Z,18.3
2017-08-07T07:32:28.097Z,18.3
2017-08-07T07:33:30.625Z,18.4
2017-08-07T07:34:33.506Z,18.4
2017-08-07T07:35:36.012Z,18.4
2017-08-07T07:36:38.526Z,18.4
2017-08-07T07:37:41.387Z,18.4
2017-08-07T07:38:43.928Z,18.5
2017-08-07T07:39:46.432Z,18.6
2017-08-07T07:40:48.939Z,18.6
2017-08-07T07:41:51.445Z,18.6
2017-08-07T07:42:53.967Z,18.7
2017-08-07T07:43:57.170Z,18.7
2017-08-07T07:45:00.040Z,18.7
2017-08-07T07:46:02.897Z,18.8
2017-08-07T07:47:05.411Z,18.8
2017-08-07T07:48:08.263Z,18.9
2017-08-07T07:49:11.462Z,18.9
2017-08-07T07:50:14.300Z,18.9
2017-08-07T07:51:16.851Z,19
2017-08-07T07:52:19.397Z,19
2017-08-07T07:53:22.270Z,19
2017-08-07T07:54:24.793Z,19
2017-08-07T07:55:28.007Z,19
2017-08-07T07:56:30.520Z,19
2017-08-07T07:57:33.052Z,19.1
2017-08-07T07:58:36.255Z,19.1
2017-08-07T07:59:39.084Z,19.2
2017-08-07T08:00:41.981Z,19.2
2017-08-07T08:01:44.498Z,19.3
2017-08-07T08:02:47.005Z,19.4
2017-08-07T08:03:49.518Z,19.4
2017-08-07T08:04:52.384Z,19.5
2017-08-07T08:05:55.610Z,19.5
2017-08-07T08:06:58.459Z,19.6
2017-08-07T08:08:00.987Z,19.6
2017-08-07T08:09:03.510Z,19.7
2017-08-07T08:10:06.714Z,19.7
2017-08-07T08:11:09.898Z,19.7
2017-08-07T08:12:12.411Z,19.8
2017-08-07T08:13:14.918Z,19.9
2017-08-07T08:14:17.474Z,20
2017-08-07T08:15:20.331Z,20
2017-08-07T08:16:22.853Z,20.1
2017-08-07T08:17:25.379Z,20.1
2017-08-07T08:18:27.901Z,20.1
2017-08-07T08:19:30.765Z,20.1
2017-08-07T08:20:33.289Z,20.3
2017-08-07T08:21:36.486Z,20.4
2017-08-07T08:22:39.337Z,20.5
2017-08-07T08:23:41.868Z,20.6
2017-08-07T08:24:44.698Z,20.9
2017-08-07T08:25:47.913Z,21
2017-08-07T08:26:50.782Z,21
2017-08-07T08:27:53.643Z,21.1
2017-08-07T08:28:56.505Z,21.2
2017-08-07T08:29:59.378Z,21.3
2017-08-07T08:31:01.900Z,21.4
2017-08-07T08:32:04.440Z,21.5
2017-08-07T08:33:06.956Z,21.3
2017-08-07T08:34:09.474Z,21.5
2017-08-07T08:35:12.320Z,21.5
2017-08-07T08:36:15.523Z,21.4
2017-08-07T08:37:18.399Z,21.4
2017-08-07T08:38:20.903Z,21.5
2017-08-07T08:39:23.756Z,21.6
2017-08-07T08:40:26.272Z,21.7
2017-08-07T08:41:28.798Z,21.9
2017-08-07T08:42:31.329Z,21.9
2017-08-07T08:43:33.849Z,21.9
2017-08-07T08:44:36.717Z,21.9
2017-08-07T08:45:39.573Z,22
2017-08-07T08:46:42.116Z,22
2017-08-07T08:47:44.981Z,22
2017-08-07T08:48:47.505Z,22
2017-08-07T08:49:50.350Z,22
2017-08-07T08:50:53.232Z,22
2017-08-07T08:51:55.732Z,22.2
2017-08-07T08:52:58.624Z,22.2
2017-08-07T08:54:01.134Z,22.3
2017-08-07T08:55:04.011Z,22.3
2017-08-07T08:56:06.868Z,22.4
2017-08-07T08:57:09.736Z,22.6
2017-08-07T08:58:12.249Z,22.6
2017-08-07T08:59:15.110Z,22.6
2017-08-07T09:00:18.310Z,22.5
2017-08-07T09:01:21.187Z,22.9
2017-08-07T09:02:24.372Z,23
2017-08-07T09:03:26.901Z,23
2017-08-07T09:04:29.776Z,22.8
2017-08-07T09:05:32.634Z,22.8
2017-08-07T09:06:35.167Z,22.8
2017-08-07T09:07:38.397Z,22.9
2017-08-07T09:08:41.269Z,23
2017-08-07T09:09:44.165Z,23
2017-08-07T09:10:46.684Z,23.1
2017-08-07T09:11:49.901Z,23.1
2017-08-07T09:12:52.418Z,23
2017-08-07T09:13:54.956Z,23.1
2017-08-07T09:14:57.815Z,23.4
2017-08-07T09:16:00.666Z,23.4
2017-08-07T09:17:04.546Z,23.3
2017-08-07T09:18:07.766Z,23.4
2017-08-07T09:19:10.291Z,23.4
2017-08-07T09:20:13.156Z,23.4
2017-08-07T09:21:15.657Z,23.4
2017-08-07T09:22:18.176Z,23.3
2017-08-07T09:23:21.026Z,23.2
2017-08-07T09:24:23.563Z,23.4
2017-08-07T09:25:26.469Z,23.5
2017-08-07T09:26:28.990Z,23.9
2017-08-07T09:27:31.524Z,23.8
2017-08-07T09:28:34.058Z,23.9
2017-08-07T09:29:36.572Z,23.9
2017-08-07T09:30:39.407Z,23.8
2017-08-07T09:31:42.273Z,23.8
2017-08-07T09:32:44.812Z,23.9
2017-08-07T09:33:47.678Z,23.8
2017-08-07T09:34:50.207Z,23.8
2017-08-07T09:35:53.072Z,23.3
2017-08-07T09:36:55.588Z,23.3
2017-08-07T09:37:58.116Z,23.3
2017-08-07T09:39:00.992Z,23.2
2017-08-07T09:40:04.520Z,23.2
2017-08-07T09:41:07.383Z,23.2
2017-08-07T09:42:09.919Z,23.6
2017-08-07T09:43:12.451Z,23.4
2017-08-07T09:44:14.982Z,23.1
2017-08-07T09:45:18.195Z,22.9
2017-08-07T09:46:21.061Z,22.6
2017-08-07T09:47:23.599Z,22.4
2017-08-07T09:48:26.118Z,22.3
2017-08-07T09:49:28.647Z,22.1
2017-08-07T09:50:31.508Z,22
2017-08-07T09:51:34.378Z,22.1
2017-08-07T09:52:37.276Z,22
2017-08-07T09:53:39.800Z,21.9
2017-08-07T09:54:42.640Z,21.9
2017-08-07T09:55:45.500Z,21.8
2017-08-07T09:56:48.382Z,21.8
2017-08-07T09:57:51.251Z,21.7
2017-08-07T09:58:54.456Z,22
2017-08-07T09:59:57.339Z,22.2
2017-08-07T10:01:00.197Z,22.3
2017-08-07T10:02:03.397Z,22.4
2017-08-07T10:03:05.917Z,22.8
2017-08-07T10:04:08.775Z,23.1
2017-08-07T10:05:11.311Z,22.9
2017-08-07T10:06:13.832Z,23
2017-08-07T10:07:16.361Z,23.2
2017-08-07T10:08:18.876Z,23.5
2017-08-07T10:09:21.387Z,23.6
2017-08-07T10:10:24.599Z,23.7
2017-08-07T10:11:27.145Z,23.7
2017-08-07T10:12:29.656Z,23.6
2017-08-07T10:13:32.538Z,23.8
2017-08-07T10:14:35.058Z,23.9
2017-08-07T10:15:38.248Z,24
2017-08-07T10:16:41.473Z,24.2
2017-08-07T10:17:44.007Z,24.1
2017-08-07T10:18:46.529Z,23.8
2017-08-07T10:19:49.414Z,23.6
2017-08-07T10:20:52.600Z,23.3
2017-08-07T10:21:55.459Z,23.2
2017-08-07T10:22:57.974Z,22.8
2017-08-07T10:24:00.487Z,22.6
2017-08-07T10:25:03.012Z,22.5
2017-08-07T10:26:06.220Z,22.7
2017-08-07T10:27:09.072Z,22.8
2017-08-07T10:28:11.605Z,22.9
2017-08-07T10:29:14.135Z,23
2017-08-07T10:30:17.333Z,23.4
2017-08-07T10:31:19.866Z,23.7
2017-08-07T10:32:22.386Z,23.7
2017-08-07T10:33:24.915Z,23.8
2017-08-07T10:34:27.790Z,24
2017-08-07T10:35:30.311Z,24.1
2017-08-07T10:36:33.180Z,24.2
2017-08-07T10:37:35.706Z,24.4
2017-08-07T10:38:38.561Z,24.3
2017-08-07T10:39:41.094Z,24.4
2017-08-07T10:40:43.646Z,24.6
2017-08-07T10:41:46.500Z,24.7
2017-08-07T10:42:49.033Z,24.6
2017-08-07T10:43:51.888Z,24.5
2017-08-07T10:44:54.423Z,24.6
2017-08-07T10:45:56.950Z,24.7
2017-08-07T10:46:59.461Z,24.7
2017-08-07T10:48:01.988Z,24.8
2017-08-07T10:49:04.853Z,25.1
2017-08-07T10:50:07.389Z,25.3
2017-08-07T10:51:09.937Z,25.5
2017-08-07T10:52:12.793Z,25.4
2017-08-07T10:53:15.652Z,25.3
2017-08-07T10:54:18.186Z,25.4
2017-08-07T10:55:20.720Z,25.6
2017-08-07T10:56:23.244Z,25.4
2017-08-07T10:57:25.796Z,25.2
2017-08-07T10:58:28.646Z,25.2
2017-08-07T10:59:31.866Z,24.9
2017-08-07T11:00:34.729Z,24.6
2017-08-07T11:01:37.592Z,24.4
2017-08-07T11:02:40.139Z,24.3
2017-08-07T11:03:42.645Z,24.7
2017-08-07T11:04:45.165Z,24.6
2017-08-07T11:05:47.693Z,24.4
2017-08-07T11:06:50.218Z,24.2
2017-08-07T11:07:52.742Z,24.4
2017-08-07T11:08:55.602Z,24.8
2017-08-07T11:09:58.807Z,25
2017-08-07T11:11:02.048Z,24.8
2017-08-07T11:12:04.918Z,24.7
2017-08-07T11:13:07.776Z,24.8
2017-08-07T11:14:10.313Z,25
2017-08-07T11:15:12.848Z,25.2
2017-08-07T11:16:15.704Z,25.3
2017-08-07T11:17:18.240Z,25.4
2017-08-07T11:18:20.740Z,25.8
2017-08-07T11:19:23.639Z,25.6
2017-08-07T11:20:26.502Z,25.9
2017-08-07T11:21:29.702Z,25.7
2017-08-07T11:22:32.208Z,25.7
2017-08-07T11:23:34.735Z,25.8
2017-08-07T11:24:37.261Z,26.2
2017-08-07T11:25:39.801Z,26
2017-08-07T11:26:42.665Z,26.3
2017-08-07T11:27:45.176Z,26.3
2017-08-07T11:28:47.694Z,26.1
2017-08-07T11:29:50.924Z,26.1
2017-08-07T11:30:53.438Z,25.8
2017-08-07T11:31:55.957Z,26
2017-08-07T11:32:58.497Z,25.8
2017-08-07T11:34:01.013Z,25.7
2017-08-07T11:35:03.881Z,25.8
2017-08-07T11:36:06.755Z,26.2
2017-08-07T11:37:09.276Z,26.1
2017-08-07T11:38:12.848Z,26.2
2017-08-07T11:39:15.737Z,26.5
2017-08-07T11:40:18.266Z,26.6
2017-08-07T11:41:21.495Z,26.4
2017-08-07T11:42:24.722Z,26.4
2017-08-07T11:43:27.598Z,26.5
2017-08-07T11:44:30.846Z,26.3
2017-08-07T11:45:33.372Z,26.2
2017-08-07T11:46:36.237Z,26.2
2017-08-07T11:47:38.769Z,26.2
2017-08-07T11:48:41.290Z,26
2017-08-07T11:49:43.809Z,26.1
2017-08-07T11:50:46.358Z,25.8
2017-08-07T11:51:49.914Z,25.5
2017-08-07T11:52:52.455Z,25.4
2017-08-07T11:53:54.996Z,25.4
2017-08-07T11:54:57.516Z,25.4
2017-08-07T11:56:00.418Z,25.2
2017-08-07T11:57:02.954Z,25.2
2017-08-07T11:58:05.483Z,25.5
2017-08-07T11:59:08.356Z,25.4
2017-08-07T12:00:10.878Z,25.3
2017-08-07T12:01:13.433Z,25.1
2017-08-07T12:02:15.965Z,24.9
2017-08-07T12:03:18.834Z,24.9
2017-08-07T12:04:21.703Z,24.7
2017-08-07T12:05:24.239Z,24.7
2017-08-07T12:06:27.105Z,24.5
2017-08-07T12:07:29.675Z,24.4
2017-08-07T12:08:32.191Z,24.5
2017-08-07T12:09:35.060Z,24.4
2017-08-07T12:10:37.605Z,24.3
2017-08-07T12:11:40.814Z,24.7
2017-08-07T12:12:44.019Z,25
2017-08-07T12:13:46.573Z,25.3
2017-08-07T12:14:49.441Z,25.6
2017-08-07T12:15:52.001Z,25.7
2017-08-07T12:16:54.543Z,25.7
2017-08-07T12:17:57.440Z,26.1
2017-08-07T12:18:59.978Z,26.1
2017-08-07T12:20:02.532Z,26.2
2017-08-07T12:21:05.757Z,26.1
2017-08-07T12:22:08.287Z,26.2
2017-08-07T12:23:10.873Z,26.2
2017-08-07T12:24:13.415Z,26.1
2017-08-07T12:25:16.296Z,26.3
2017-08-07T12:26:19.849Z,26.4
2017-08-07T12:27:22.772Z,26.4
2017-08-07T12:28:25.303Z,26.4
2017-08-07T12:29:28.184Z,26.6
2017-08-07T12:30:30.713Z,26.7
2017-08-07T12:31:33.242Z,26.5
2017-08-07T12:32:36.106Z,26.4
2017-08-07T12:33:38.626Z,26.5
2017-08-07T12:34:41.173Z,26.6
2017-08-07T12:35:44.281Z,26.8
2017-08-07T12:36:47.567Z,26.5
2017-08-07T12:37:50.097Z,26.4
2017-08-07T12:38:52.976Z,26
2017-08-07T12:39:55.849Z,25.7
2017-08-07T12:40:58.739Z,25.2
2017-08-07T12:42:01.258Z,25.5
2017-08-07T12:43:04.142Z,25.6
2017-08-07T12:44:06.659Z,25.6
2017-08-07T12:45:09.614Z,26
2017-08-07T12:46:12.495Z,26.1
2017-08-07T12:47:15.371Z,25.8
2017-08-07T12:48:17.919Z,25.5
2017-08-07T12:49:20.479Z,25.6
2017-08-07T12:50:23.373Z,25.3
2017-08-07T12:51:25.908Z,25.4
2017-08-07T12:52:28.425Z,25.3
2017-08-07T12:53:30.969Z,25.5
2017-08-07T12:54:33.835Z,25.9
2017-08-07T12:55:36.361Z,26.1
2017-08-07T12:56:38.908Z,26.3
2017-08-07T12:57:41.432Z,26.1
2017-08-07T12:58:43.993Z,26
2017-08-07T12:59:46.543Z,26
2017-08-07T13:00:49.070Z,26.3
2017-08-07T13:01:51.968Z,26.5
2017-08-07T13:02:55.173Z,26.5
2017-08-07T13:03:58.043Z,26.4
2017-08-07T13:05:01.262Z,26.2
2017-08-07T13:06:04.159Z,25.5
2017-08-07T13:07:06.682Z,25.5
2017-08-07T13:08:09.573Z,25.6
2017-08-07T13:09:12.121Z,25.6
2017-08-07T13:10:14.651Z,25.3
2017-08-07T13:11:17.184Z,25.2
2017-08-07T13:12:19.724Z,25.7
2017-08-07T13:13:22.258Z,25.9
2017-08-07T13:14:25.482Z,26.1
2017-08-07T13:15:28.358Z,26.1
2017-08-07T13:16:30.911Z,26.3
2017-08-07T13:17:34.146Z,26.2
2017-08-07T13:18:37.366Z,26.1
2017-08-07T13:19:39.894Z,26
2017-08-07T13:20:42.442Z,26.4
2017-08-07T13:21:44.980Z,26.6
2017-08-07T13:22:48.210Z,26.6
2017-08-07T13:23:50.773Z,26.3
2017-08-07T13:24:53.630Z,26.5
2017-08-07T13:25:56.166Z,26.7
2017-08-07T13:26:58.726Z,27
2017-08-07T13:28:01.589Z,27.1
2017-08-07T13:29:04.129Z,27
2017-08-07T13:30:07.112Z,26.8
2017-08-07T13:31:09.645Z,26.7
2017-08-07T13:32:12.185Z,26.7
2017-08-07T13:33:14.729Z,26.6
2017-08-07T13:34:17.601Z,26.9
2017-08-07T13:35:20.461Z,27.1
2017-08-07T13:36:22.991Z,27
2017-08-07T13:37:25.855Z,26.8
2017-08-07T13:38:28.393Z,26.6
2017-08-07T13:39:30.985Z,26.4
2017-08-07T13:40:33.524Z,26.2
2017-08-07T13:41:36.468Z,26.3
2017-08-07T13:42:39.697Z,26.1
2017-08-07T13:43:42.236Z,26.2
2017-08-07T13:44:44.785Z,26.3
2017-08-07T13:45:47.661Z,26
2017-08-07T13:46:50.561Z,25.9
2017-08-07T13:47:53.096Z,25.8
2017-08-07T13:48:55.626Z,25.7
2017-08-07T13:49:58.166Z,25.6
2017-08-07T13:51:01.780Z,25.5
2017-08-07T13:52:04.307Z,25.6
2017-08-07T13:53:07.138Z,25.9
2017-08-07T13:54:09.656Z,26.1
2017-08-07T13:55:12.879Z,25.9
2017-08-07T13:56:15.749Z,25.7
2017-08-07T13:57:18.263Z,25.5
2017-08-07T13:58:21.162Z,25.4
2017-08-07T13:59:24.053Z,25.4